Řízení letového provozu České republiky
Letiste: LKNA Aktualizace: 22.07.2019 14:00:32  UTC
 METAR LKNA 22.07. 14:00 ...
METAR LKNA 221400Z 29008KT 230V340 CAVOK 27/11 Q1023 NOSIG RMK BLU BLU=
 TAF LKNA 22.07. 11:00 ...
TAF LKNA 221100Z 2212/2312 30005KT CAVOK      TEMPO 2212/2216 SCT045TCU      BECMG 2218/2220 VRB02KT=